Time;durP1;ratioP1;P1;durP2;ratioP2;P2;SDS_P1;SDS_P2;PMS_P1;PMS_P2;Temp;Humidity;BMP_temperature;BMP_pressure;BME280_temperature;BME280_humidity;BME280_pressure;Samples;Min_cycle;Max_cycle;Signal;HPM_P1;HPM_P2
2022/01/20 00:00:44;;;;;;;0.20;0.20;;;;;;;19.01;39.97;101961.44;5126712;27;20399;-30
2022/01/20 00:03:16;;;;;;;0.20;0.20;;;;;;;19.03;40.21;101958.41;5126642;27;20079;-32
2022/01/20 00:27:54;;;;;;;0.30;0.30;;;;;;;19.01;40.54;101957.84;5111035;27;20043;-31
2022/01/20 00:38:28;;;;;;;0.30;0.30;;;;;;;19.01;40.47;101966.13;5154185;27;20206;-27
2022/01/20 00:40:55;;;;;;;0.20;0.20;;;;;;;19.01;40.37;101971.66;5149635;27;20043;-27
2022/01/20 00:43:21;;;;;;;0.20;0.20;;;;;;;19.01;40.42;101979.94;5132596;27;20560;-27
2022/01/20 00:45:47;;;;;;;0.20;0.20;;;;;;;19.01;40.20;101986.28;5153809;27;20481;-28
2022/01/20 00:48:17;;;;;;;0.20;0.20;;;;;;;19.01;40.38;101964.22;5149733;27;20055;-27
2022/01/20 00:50:43;;;;;;;0.30;0.30;;;;;;;18.99;40.38;101971.88;5135371;27;20042;-26
2022/01/20 00:53:09;;;;;;;0.20;0.20;;;;;;;19.00;40.20;101972.75;5149912;27;20042;-27
2022/01/20 00:55:34;;;;;;;0.20;0.20;;;;;;;18.99;40.38;101980.16;5134677;27;20043;-27
2022/01/20 00:58:00;;;;;;;0.20;0.20;;;;;;;19.00;40.21;101984.63;5150785;27;20111;-27
2022/01/20 01:00:26;;;;;;;0.20;0.20;;;;;;;19.00;40.42;101984.63;5155372;27;20212;-27
2022/01/20 01:02:52;;;;;;;0.20;0.20;;;;;;;18.99;40.42;101980.16;5153718;27;20465;-26
2022/01/20 01:05:18;;;;;;;0.20;0.20;;;;;;;18.99;40.35;101976.56;5151482;27;20046;-27
2022/01/20 01:10:16;;;;;;;0.20;0.20;;;;;;;18.99;40.27;101985.69;5132664;27;20053;-27
2022/01/20 01:12:51;;;;;;;0.20;0.20;;;;;;;18.99;40.48;101988.44;5131632;27;20051;-26
2022/01/20 01:15:22;;;;;;;0.20;0.20;;;;;;;18.98;40.38;101978.50;5152822;27;20086;-26
2022/01/20 01:20:56;;;;;;;0.28;0.28;;;;;;;18.97;40.33;101985.13;5136620;27;20392;-27
2022/01/20 01:23:19;;;;;;;0.28;0.28;;;;;;;18.98;40.19;101977.69;5120334;27;20046;-27
2022/01/20 01:25:45;;;;;;;0.30;0.30;;;;;;;18.98;40.38;101984.03;5152694;27;20041;-27
2022/01/20 01:28:10;;;;;;;0.20;0.20;;;;;;;18.97;40.43;101976.84;5132685;27;20058;-27
2022/01/20 01:33:22;;;;;;;0.20;0.20;;;;;;;18.95;40.34;101984.53;5136399;27;20102;-27
2022/01/20 01:35:55;;;;;;;0.20;0.20;;;;;;;18.97;40.18;101992.56;5151174;27;20035;-27
2022/01/20 01:38:36;;;;;;;0.20;0.20;;;;;;;18.96;40.20;101986.22;5151006;27;20050;-27
2022/01/20 01:41:04;;;;;;;0.20;0.20;;;;;;;18.96;40.34;101982.63;5151926;27;20046;-27
2022/01/20 01:43:31;;;;;;;0.20;0.20;;;;;;;18.98;40.34;101997.84;5150402;27;20042;-27
2022/01/20 01:46:00;;;;;;;0.20;0.20;;;;;;;18.97;40.25;101995.34;5131691;27;20046;-27
2022/01/20 01:48:27;;;;;;;0.25;0.25;;;;;;;18.95;40.28;101981.75;5129141;27;20149;-27
2022/01/20 01:50:52;;;;;;;0.30;0.30;;;;;;;18.94;40.45;101982.88;5138582;27;20047;-27
2022/01/20 01:53:18;;;;;;;0.30;0.30;;;;;;;18.94;40.24;101988.38;5137701;27;20055;-27
2022/01/20 01:55:44;;;;;;;0.20;0.20;;;;;;;18.95;40.25;101992.81;5138280;27;20186;-28
2022/01/20 01:58:09;;;;;;;0.30;0.30;;;;;;;18.96;40.25;102000.03;5117969;27;20069;-27
2022/01/20 02:00:35;;;;;;;0.20;0.20;;;;;;;18.96;40.58;101999.19;5138170;27;20192;-27
2022/01/20 02:03:01;;;;;;;0.30;0.30;;;;;;;18.95;40.44;101998.34;5135963;27;20042;-27
2022/01/20 02:05:27;;;;;;;0.20;0.20;;;;;;;18.96;40.34;101994.50;5138549;27;20039;-27
2022/01/20 02:08:31;;;;;;;0.30;0.30;;;;;;;18.95;40.22;102000.25;5138270;27;20456;-28
2022/01/20 02:18:55;;;;;;;0.20;0.20;;;;;;;18.93;40.23;101972.91;5122079;27;20058;-27
2022/01/20 02:21:21;;;;;;;0.22;0.22;;;;;;;18.94;40.47;101971.00;5134939;27;20043;-27
2022/01/20 02:23:48;;;;;;;0.20;0.20;;;;;;;18.94;40.42;101980.09;5135030;27;20047;-27
2022/01/20 02:26:13;;;;;;;0.25;0.25;;;;;;;18.94;40.37;101968.22;5120835;27;20300;-27
2022/01/20 02:28:39;;;;;;;0.30;0.30;;;;;;;18.95;40.45;101972.66;5118159;27;20096;-27
2022/01/20 02:31:06;;;;;;;0.20;0.20;;;;;;;18.95;40.37;101976.25;5118871;27;20078;-27
2022/01/20 02:33:32;;;;;;;0.20;0.20;;;;;;;18.95;40.54;101975.41;5116199;27;20440;-27
2022/01/20 02:36:04;;;;;;;0.20;0.20;;;;;;;18.94;40.50;101985.63;5116258;27;20049;-27
2022/01/20 02:38:37;;;;;;;0.30;0.30;;;;;;;18.94;40.41;101979.28;5136533;27;20042;-27
2022/01/20 02:46:37;;;;;;;0.20;0.20;;;;;;;18.95;40.51;101972.66;5106725;27;20054;-28
2022/01/20 02:49:03;;;;;;;0.30;0.30;;;;;;;18.94;40.52;101963.53;5136305;27;20057;-27
2022/01/20 02:51:29;;;;;;;0.20;0.20;;;;;;;18.93;40.48;101977.59;5136361;27;20051;-27
2022/01/20 02:53:55;;;;;;;0.30;0.30;;;;;;;18.93;40.45;101981.19;5132421;27;20047;-27
2022/01/20 02:56:20;;;;;;;0.30;0.30;;;;;;;18.94;40.33;101987.56;5135619;27;20095;-27
2022/01/20 02:58:46;;;;;;;0.30;0.30;;;;;;;18.94;40.33;101982.88;5137427;27;20452;-27
2022/01/20 03:01:12;;;;;;;0.30;0.30;;;;;;;18.93;40.40;101972.09;5115839;27;20050;-27
2022/01/20 03:03:38;;;;;;;0.30;0.30;;;;;;;18.92;40.20;101968.50;5135889;27;20045;-27
2022/01/20 03:06:04;;;;;;;0.20;0.20;;;;;;;18.93;40.45;101969.31;5136993;27;20054;-27
2022/01/20 03:08:30;;;;;;;0.30;0.30;;;;;;;18.93;40.31;101961.88;5117814;27;20050;-27
2022/01/20 03:10:56;;;;;;;0.30;0.30;;;;;;;18.93;40.29;101961.88;5134435;27;20208;-27
2022/01/20 03:13:22;;;;;;;0.30;0.30;;;;;;;18.90;40.46;101965.13;5115416;27;20102;-28
2022/01/20 03:15:47;;;;;;;0.30;0.30;;;;;;;18.90;40.33;101962.38;5137798;27;20043;-27
2022/01/20 03:18:13;;;;;;;0.20;0.20;;;;;;;18.93;40.53;101977.59;5133427;27;20039;-27
2022/01/20 03:20:39;;;;;;;0.30;0.30;;;;;;;18.93;40.33;101980.38;5135437;27;20054;-27
2022/01/20 03:23:04;;;;;;;0.30;0.30;;;;;;;18.93;40.54;101983.13;5131616;27;20038;-27
2022/01/20 03:25:31;;;;;;;0.20;0.20;;;;;;;18.91;40.50;101979.78;5116151;27;20104;-27
2022/01/20 03:27:57;;;;;;;0.30;0.30;;;;;;;18.91;40.58;101971.50;5119881;27;20051;-27
2022/01/20 03:30:23;;;;;;;0.20;0.20;;;;;;;18.90;40.50;101970.66;5115275;27;20055;-27
2022/01/20 03:32:49;;;;;;;0.20;0.20;;;;;;;18.90;40.50;101970.66;5135728;27;20080;-27
2022/01/20 03:35:16;;;;;;;0.20;0.20;;;;;;;18.90;40.23;101965.13;5115697;27;20046;-28
2022/01/20 03:37:41;;;;;;;0.20;0.20;;;;;;;18.90;40.42;101967.91;5116046;27;20047;-27
2022/01/20 03:40:08;;;;;;;0.20;0.20;;;;;;;18.91;40.28;101965.97;5119152;27;20107;-27
2022/01/20 03:42:34;;;;;;;0.30;0.30;;;;;;;18.91;40.19;101965.97;5135694;27;20047;-27
2022/01/20 03:45:00;;;;;;;0.20;0.20;;;;;;;18.92;40.41;101970.44;5136902;27;20061;-27
2022/01/20 03:47:26;;;;;;;0.30;0.30;;;;;;;18.90;40.12;101973.41;5137427;27;20088;-27
2022/01/20 03:50:07;;;;;;;0.20;0.20;;;;;;;18.90;40.29;101961.53;5134372;27;20039;-27
2022/01/20 03:52:34;;;;;;;0.30;0.30;;;;;;;18.90;40.30;101959.63;5118240;27;20047;-27
2022/01/20 03:55:00;;;;;;;0.30;0.30;;;;;;;18.89;40.25;101943.31;5118419;27;20478;-27
2022/01/20 03:57:26;;;;;;;0.20;0.20;;;;;;;18.91;40.38;101957.69;5117086;27;20057;-27
2022/01/20 03:59:51;;;;;;;0.22;0.22;;;;;;;18.91;40.40;101957.69;5118757;27;20047;-27
2022/01/20 04:02:17;;;;;;;0.30;0.30;;;;;;;18.90;40.58;101950.50;5119285;27;20042;-27
2022/01/20 04:04:43;;;;;;;0.30;0.30;;;;;;;18.90;40.39;101956.84;5136330;27;20039;-28
2022/01/20 04:07:10;;;;;;;0.25;0.25;;;;;;;18.90;40.39;101972.59;5137039;27;20047;-28
2022/01/20 04:09:35;;;;;;;0.30;0.30;;;;;;;18.90;40.48;101981.69;5116837;27;20039;-27
2022/01/20 04:12:02;;;;;;;0.30;0.30;;;;;;;18.89;40.47;101988.31;5135401;27;20098;-28
2022/01/20 04:14:28;;;;;;;0.30;0.30;;;;;;;18.90;40.45;101983.63;5132619;27;20043;-27
2022/01/20 04:19:27;;;;;;;0.30;0.30;;;;;;;18.89;40.46;101966.22;5135809;27;20054;-27
2022/01/20 04:21:53;;;;;;;0.20;0.20;;;;;;;18.89;40.51;101963.47;5118873;27;20099;-27
2022/01/20 04:24:19;;;;;;;0.30;0.30;;;;;;;18.89;40.50;101965.41;5114428;27;20086;-27
2022/01/20 04:26:46;;;;;;;0.20;0.20;;;;;;;18.89;40.33;101957.94;5138016;27;20319;-27
2022/01/20 04:29:13;;;;;;;0.22;0.22;;;;;;;18.88;40.49;101958.22;5137350;27;20047;-27
2022/01/20 04:31:40;;;;;;;0.30;0.30;;;;;;;18.88;40.41;101953.53;5135930;27;20042;-27
2022/01/20 04:34:07;;;;;;;0.20;0.20;;;;;;;18.88;40.23;101958.22;5134044;27;20050;-27
2022/01/20 04:36:34;;;;;;;0.30;0.30;;;;;;;18.89;40.51;101957.94;5134593;27;20043;-27
2022/01/20 04:39:01;;;;;;;0.20;0.20;;;;;;;18.88;40.38;101950.78;5135509;27;20466;-27
2022/01/20 04:41:29;;;;;;;0.20;0.20;;;;;;;18.88;40.42;101947.19;5134921;27;20042;-27
2022/01/20 04:43:56;;;;;;;0.20;0.20;;;;;;;18.88;40.25;101941.66;5135594;27;20066;-27
2022/01/20 04:46:33;;;;;;;0.30;0.30;;;;;;;18.87;40.46;101945.47;5117274;27;20142;-27
2022/01/20 04:57:17;;;;;;;0.30;0.30;;;;;;;18.87;40.36;101975.84;5132470;27;20051;-27
2022/01/20 04:59:44;;;;;;;0.20;0.20;;;;;;;18.87;40.35;101967.56;5147929;27;20047;-27
2022/01/20 05:02:10;;;;;;;0.30;0.30;;;;;;;18.88;40.23;101966.50;5149426;27;20043;-27
2022/01/20 05:04:37;;;;;;;0.30;0.30;;;;;;;18.86;40.48;101966.72;5134215;27;21300;-27
2022/01/20 05:07:04;;;;;;;0.20;0.20;;;;;;;18.87;40.51;101981.38;5130591;27;20075;-27
2022/01/20 05:09:29;;;;;;;0.20;0.20;;;;;;;18.86;40.50;101983.28;5130262;27;20051;-27
2022/01/20 05:12:00;;;;;;;0.20;0.20;;;;;;;18.86;40.52;101954.84;5128478;27;20061;-27
2022/01/20 05:14:27;;;;;;;0.20;0.20;;;;;;;18.85;40.33;101959.56;5149505;27;20038;-27
2022/01/20 05:16:55;;;;;;;0.20;0.20;;;;;;;18.85;40.31;101962.31;5151859;27;20047;-27
2022/01/20 05:19:23;;;;;;;0.20;0.20;;;;;;;18.85;40.36;101973.34;5153885;27;20106;-27
2022/01/20 05:21:49;;;;;;;0.20;0.20;;;;;;;18.85;40.27;101967.81;5122517;27;20039;-27
2022/01/20 05:24:14;;;;;;;0.20;0.20;;;;;;;18.86;40.47;101987.97;5148634;27;20046;-27
2022/01/20 05:26:40;;;;;;;0.20;0.20;;;;;;;18.85;40.33;101978.88;5115458;27;20066;-27
2022/01/20 05:29:06;;;;;;;0.20;0.20;;;;;;;18.86;40.45;101985.22;5148226;27;20069;-27
2022/01/20 05:31:32;;;;;;;0.30;0.30;;;;;;;18.86;40.43;101987.97;5149870;27;20092;-27
2022/01/20 05:33:57;;;;;;;0.20;0.20;;;;;;;18.85;40.19;101989.91;5150278;27;20050;-27
2022/01/20 05:36:23;;;;;;;0.30;0.30;;;;;;;18.84;40.53;101993.75;5149616;27;20088;-27
2022/01/20 05:38:49;;;;;;;0.20;0.20;;;;;;;18.85;40.46;101991.84;5131190;27;20043;-27
2022/01/20 05:41:15;;;;;;;0.30;0.30;;;;;;;18.84;40.44;101991.00;5131378;27;20058;-28
2022/01/20 05:43:41;;;;;;;0.20;0.20;;;;;;;18.84;40.32;101996.53;5149784;27;20064;-27
2022/01/20 05:46:08;;;;;;;0.20;0.20;;;;;;;18.85;40.41;102002.88;5148387;27;20066;-27
2022/01/20 05:48:35;;;;;;;0.22;0.22;;;;;;;18.84;40.17;102004.81;5149645;27;20050;-28
2022/01/20 05:51:03;;;;;;;0.20;0.20;;;;;;;18.84;40.34;102015.00;5150492;27;20047;-27
2022/01/20 05:53:28;;;;;;;0.30;0.30;;;;;;;18.83;40.31;102016.09;5145527;27;20046;-27
2022/01/20 05:55:54;;;;;;;0.20;0.20;;;;;;;18.82;40.28;102011.66;5150793;27;20090;-27
2022/01/20 05:58:20;;;;;;;0.20;0.20;;;;;;;18.83;40.29;102030.75;5115250;27;20042;-27
2022/01/20 06:00:47;;;;;;;0.20;0.20;;;;;;;18.83;40.39;102035.44;5147786;27;20042;-27
2022/01/20 06:03:44;;;;;;;0.20;0.20;;;;;;;18.82;40.42;102056.66;5135441;27;20405;-27
2022/01/20 06:05:59;;;;;;;0.30;0.30;;;;;;;18.83;40.37;102066.63;5119341;27;20413;-27
2022/01/20 06:08:25;;;;;;;0.20;0.20;;;;;;;18.84;40.25;102072.97;5114013;27;20077;-27
2022/01/20 06:10:51;;;;;;;0.20;0.20;;;;;;;18.82;40.35;102042.84;5116977;27;20045;-27
2022/01/20 06:13:19;;;;;;;0.20;0.20;;;;;;;18.82;40.42;102042.84;5133051;27;20054;-28
2022/01/20 06:15:45;;;;;;;0.30;0.30;;;;;;;18.82;40.44;102040.09;5115153;27;20043;-27
2022/01/20 06:18:12;;;;;;;0.20;0.20;;;;;;;18.82;40.44;102044.78;5130921;27;20042;-27
2022/01/20 06:20:39;;;;;;;0.20;0.20;;;;;;;18.83;40.47;102049.22;5107603;28;20126;-27
2022/01/20 06:23:06;;;;;;;0.20;0.20;;;;;;;18.82;40.36;102048.38;5123989;28;20047;-27
2022/01/20 06:25:32;;;;;;;0.20;0.20;;;;;;;18.82;40.33;102059.41;5125457;28;20045;-28
2022/01/20 06:27:58;;;;;;;0.20;0.20;;;;;;;18.83;40.50;102057.50;5125855;28;20047;-27
2022/01/20 06:30:25;;;;;;;0.30;0.30;;;;;;;18.82;40.42;102056.66;5125437;28;20043;-27
2022/01/20 06:32:52;;;;;;;0.20;0.20;;;;;;;18.81;40.46;102071.53;5125232;28;20082;-27
2022/01/20 06:35:17;;;;;;;0.20;0.20;;;;;;;18.81;40.29;102074.28;5087808;28;20056;-27
2022/01/20 06:37:43;;;;;;;0.30;0.30;;;;;;;18.82;40.56;102080.66;5125442;28;20968;-27
2022/01/20 06:40:10;;;;;;;0.30;0.30;;;;;;;18.81;40.36;102079.81;5123515;28;20087;-27
2022/01/20 06:42:36;;;;;;;0.20;0.20;;;;;;;18.82;40.53;102094.44;5107232;28;20095;-27
2022/01/20 06:45:05;;;;;;;0.30;0.30;;;;;;;18.82;40.45;102102.72;5124679;28;20047;-27
2022/01/20 06:47:30;;;;;;;0.40;0.40;;;;;;;18.81;40.42;102101.91;5107211;28;20043;-28
2022/01/20 06:49:56;;;;;;;0.20;0.20;;;;;;;18.80;40.49;102103.81;5106119;28;20119;-27
2022/01/20 06:52:22;;;;;;;0.30;0.30;;;;;;;18.79;40.47;102107.69;5123978;28;20043;-30
2022/01/20 06:54:47;;;;;;;0.30;0.30;;;;;;;18.79;40.49;102106.84;5108336;28;20054;-30
2022/01/20 06:57:21;;;;;;;0.30;0.30;;;;;;;18.80;40.38;102108.50;5125591;28;20050;-29
2022/01/20 06:59:46;;;;;;;0.25;0.25;;;;;;;18.79;40.38;102121.47;5104092;28;20057;-30
2022/01/20 07:02:12;;;;;;;0.20;0.20;;;;;;;18.81;40.34;102126.72;5121694;28;20374;-30
2022/01/20 07:04:38;;;;;;;0.20;0.20;;;;;;;18.80;40.53;102133.34;5121713;28;20050;-30
2022/01/20 07:07:05;;;;;;;0.30;0.30;;;;;;;18.79;40.27;102143.56;5120231;28;20452;-30
2022/01/20 07:09:31;;;;;;;0.30;0.30;;;;;;;18.79;40.65;102142.72;5113377;28;20154;-28
2022/01/20 07:11:57;;;;;;;0.25;0.25;;;;;;;18.78;40.29;102143.78;5114263;28;20315;-27
2022/01/20 07:14:23;;;;;;;0.20;0.20;;;;;;;18.79;40.35;102148.25;5119067;27;20316;-28
2022/01/20 07:16:48;;;;;;;0.30;0.30;;;;;;;18.78;40.49;102152.94;5119079;28;20130;-28
2022/01/20 07:19:15;;;;;;;0.22;0.22;;;;;;;18.79;40.27;102165.63;5122122;27;20050;-28
2022/01/20 07:21:41;;;;;;;0.20;0.20;;;;;;;18.78;40.31;102177.75;5123631;28;20047;-28
2022/01/20 07:24:07;;;;;;;0.30;0.30;;;;;;;18.79;40.37;102170.31;5122448;28;20096;-29
2022/01/20 07:26:33;;;;;;;0.30;0.30;;;;;;;18.78;40.48;102177.75;5123975;28;20043;-29
2022/01/20 07:28:59;;;;;;;0.30;0.30;;;;;;;18.77;40.48;102184.34;5088668;28;20482;-29
2022/01/20 07:31:25;;;;;;;0.30;0.30;;;;;;;18.78;40.42;102186.03;5125275;28;20055;-28
2022/01/20 07:33:51;;;;;;;0.30;0.30;;;;;;;18.77;40.32;102187.09;5123384;28;20474;-29
2022/01/20 07:36:17;;;;;;;0.20;0.20;;;;;;;18.78;40.38;102197.09;5122684;28;20385;-28
2022/01/20 07:38:42;;;;;;;0.20;0.20;;;;;;;18.78;40.38;102197.09;5123767;28;20043;-29
2022/01/20 07:41:08;;;;;;;0.20;0.20;;;;;;;18.78;40.25;102197.09;5122119;28;20051;-28
2022/01/20 07:43:34;;;;;;;0.20;0.20;;;;;;;18.78;40.38;102196.22;5117519;27;20573;-29
2022/01/20 07:45:59;;;;;;;0.30;0.30;;;;;;;18.78;40.56;102204.50;5119897;27;20051;-29
2022/01/20 07:48:25;;;;;;;0.30;0.30;;;;;;;18.77;40.49;102198.16;5119288;28;20432;-29
2022/01/20 07:50:51;;;;;;;0.20;0.20;;;;;;;18.78;40.29;102196.22;5117050;27;20062;-29
2022/01/20 07:53:17;;;;;;;0.20;0.20;;;;;;;18.77;40.46;102211.09;5116390;27;20115;-29
2022/01/20 07:55:42;;;;;;;0.20;0.20;;;;;;;18.51;37.90;102216.09;5121143;27;20039;-28
2022/01/20 07:58:08;;;;;;;0.20;0.20;;;;;;;18.70;39.74;102219.56;5120871;27;20082;-29
2022/01/20 08:00:34;;;;;;;0.30;0.30;;;;;;;18.54;39.00;102231.34;5117743;28;20043;-29
2022/01/20 08:02:59;;;;;;;0.30;0.30;;;;;;;18.70;39.65;102235.28;5096345;28;20051;-29
2022/01/20 08:05:25;;;;;;;0.20;0.20;;;;;;;18.76;39.77;102231.53;5111610;27;20047;-29
2022/01/20 08:07:51;;;;;;;0.30;0.30;;;;;;;18.77;39.85;102228.50;5102605;28;20493;-28
2022/01/20 08:10:17;;;;;;;0.30;0.30;;;;;;;18.79;39.89;102231.88;5113539;28;20047;-28
2022/01/20 08:12:43;;;;;;;0.20;0.20;;;;;;;18.82;39.75;102232.44;5117707;28;20142;-30
2022/01/20 08:15:12;;;;;;;0.20;0.20;;;;;;;18.82;39.79;102230.53;5096206;28;20298;-29
2022/01/20 08:17:39;;;;;;;0.20;0.20;;;;;;;18.83;39.73;102234.16;5117872;27;20054;-28
2022/01/20 08:20:06;;;;;;;0.20;0.20;;;;;;;18.83;39.68;102229.47;5074944;28;20065;-29
2022/01/20 08:22:34;;;;;;;0.22;0.22;;;;;;;18.84;39.88;102236.66;5097498;28;20138;-28
2022/01/20 08:25:07;;;;;;;0.20;0.20;;;;;;;18.84;39.80;102242.16;5118838;27;20100;-29
2022/01/20 08:27:33;;;;;;;0.30;0.30;;;;;;;18.85;39.73;102241.06;5115610;28;20039;-29
2022/01/20 08:29:58;;;;;;;0.20;0.20;;;;;;;18.86;39.65;102250.19;5097458;28;20466;-28
2022/01/20 08:32:24;;;;;;;0.30;0.30;;;;;;;18.85;39.86;102243.84;5116782;28;20057;-28
2022/01/20 08:34:50;;;;;;;0.20;0.20;;;;;;;18.87;39.80;102260.13;5116829;28;20047;-28
2022/01/20 08:37:16;;;;;;;0.20;0.20;;;;;;;18.85;40.02;102268.69;5101773;28;20043;-29
2022/01/20 08:39:42;;;;;;;0.20;0.20;;;;;;;18.86;39.84;102272.28;5117743;28;20054;-30
2022/01/20 08:42:09;;;;;;;0.20;0.20;;;;;;;18.88;39.84;102270.13;5118407;28;20470;-28
2022/01/20 08:44:35;;;;;;;0.20;0.20;;;;;;;18.88;40.03;102272.88;5101485;28;20051;-28
2022/01/20 08:47:02;;;;;;;0.20;0.20;;;;;;;18.89;40.09;102263.50;5102537;28;20078;-28
2022/01/20 08:49:29;;;;;;;0.20;0.20;;;;;;;18.89;39.88;102275.38;5100576;28;20150;-28
2022/01/20 08:51:55;;;;;;;0.20;0.20;;;;;;;18.90;39.78;102273.47;5100005;28;20051;-30
2022/01/20 08:54:21;;;;;;;0.20;0.20;;;;;;;18.91;39.90;102272.38;5086015;28;20079;-29
2022/01/20 08:56:47;;;;;;;0.20;0.20;;;;;;;18.93;40.13;102273.81;5122945;28;20508;-29
2022/01/20 08:59:13;;;;;;;0.20;0.20;;;;;;;18.93;39.84;102273.81;5100286;28;20043;-29
2022/01/20 09:01:40;;;;;;;0.20;0.20;;;;;;;18.95;40.03;102273.56;5098052;28;20315;-29
2022/01/20 09:04:07;;;;;;;0.20;0.20;;;;;;;18.94;39.91;102274.63;5093176;28;20112;-29
2022/01/20 09:06:33;;;;;;;0.20;0.20;;;;;;;18.95;39.93;102281.84;5099553;28;20047;-28
2022/01/20 09:09:00;;;;;;;0.20;0.20;;;;;;;18.95;39.98;102287.34;5115836;28;20051;-29
2022/01/20 09:11:31;;;;;;;0.30;0.30;;;;;;;18.96;39.82;102291.81;5095835;28;20051;-29
2022/01/20 09:16:43;;;;;;;0.20;0.20;;;;;;;18.96;39.69;102308.38;5095364;27;20039;-29
2022/01/20 09:19:10;;;;;;;0.20;0.20;;;;;;;18.96;39.60;102309.22;5116018;27;20389;-28
2022/01/20 09:21:38;;;;;;;0.20;0.20;;;;;;;18.98;39.80;102314.47;5116784;28;20061;-29
2022/01/20 09:24:04;;;;;;;;;;;;;;;18.96;39.75;102311.13;5096107;28;20422;-28
2022/01/20 09:26:29;;;;;;;0.25;0.25;;;;;;;18.96;39.64;102311.13;5114058;28;20008;-28
2022/01/20 09:28:55;;;;;;;0.20;0.20;;;;;;;18.97;39.58;102313.63;5113483;28;20047;-28
2022/01/20 09:31:23;;;;;;;0.20;0.20;;;;;;;18.98;39.54;102311.72;5114254;28;20046;-29
2022/01/20 09:33:49;;;;;;;0.20;0.20;;;;;;;18.98;39.56;102308.97;5111364;28;20042;-29
2022/01/20 09:36:15;;;;;;;0.20;0.20;;;;;;;18.96;39.63;102317.50;5098421;28;20039;-29
2022/01/20 09:38:41;;;;;;;0.20;0.20;;;;;;;18.98;39.17;102314.47;5114634;27;20047;-29
2022/01/20 09:41:07;;;;;;;0.20;0.20;;;;;;;18.97;39.28;102310.88;5114122;27;20432;-29
2022/01/20 09:43:34;;;;;;;0.30;0.30;;;;;;;18.98;39.48;102317.25;5101520;28;20130;-28
2022/01/20 09:46:00;;;;;;;0.20;0.20;;;;;;;18.96;39.46;102323.00;5101060;28;20039;-28
2022/01/20 09:48:27;;;;;;;0.20;0.20;;;;;;;18.98;39.38;102339.31;5109121;28;20216;-29
2022/01/20 09:50:53;;;;;;;0.30;0.30;;;;;;;18.97;39.22;102346.78;5084698;28;20043;-28
2022/01/20 09:53:20;;;;;;;0.20;0.20;;;;;;;18.97;39.41;102346.78;5092991;28;20048;-31
2022/01/20 09:55:46;;;;;;;0.20;0.20;;;;;;;18.98;39.38;102350.38;5099529;28;20462;-31
2022/01/20 09:58:13;;;;;;;0.20;0.20;;;;;;;18.97;39.35;102351.47;5092730;27;20436;-30
2022/01/20 10:00:40;;;;;;;0.20;0.20;;;;;;;18.94;39.51;102350.00;5092348;28;20070;-29
2022/01/20 10:03:10;;;;;;;0.25;0.25;;;;;;;18.95;39.31;102348.91;5091121;27;20044;-30
2022/01/20 10:05:47;;;;;;;0.20;0.20;;;;;;;18.95;39.51;102359.13;5114117;27;20047;-29
2022/01/20 10:08:21;;;;;;;0.20;0.20;;;;;;;18.94;39.33;102360.22;5112656;27;20505;-28
2022/01/20 10:10:52;;;;;;;0.20;0.20;;;;;;;18.94;39.26;102357.47;5111735;27;20447;-28
2022/01/20 10:13:23;;;;;;;0.20;0.20;;;;;;;18.94;39.34;102361.06;5105186;27;20131;-28
2022/01/20 10:16:06;;;;;;;0.20;0.20;;;;;;;18.94;39.42;102369.34;5108935;27;20058;-29
2022/01/20 10:18:34;;;;;;;0.22;0.22;;;;;;;18.96;39.44;102371.88;5109731;27;20138;-29
2022/01/20 10:21:04;;;;;;;0.20;0.20;;;;;;;18.94;39.57;102366.56;5093597;27;20409;-29
2022/01/20 10:29:03;;;;;;;0.20;0.20;;;;;;;18.94;39.46;102379.53;5105964;27;21363;-27
2022/01/20 10:31:49;;;;;;;0.20;0.20;;;;;;;18.94;39.49;102379.53;5082986;28;20070;-27
2022/01/20 10:34:35;;;;;;;0.10;0.10;;;;;;;18.95;39.42;102386.75;5097130;28;20200;-28
2022/01/20 10:37:12;;;;;;;0.20;0.20;;;;;;;18.96;38.86;102396.72;5070958;28;20382;-33
2022/01/20 10:39:42;;;;;;;0.20;0.20;;;;;;;18.99;38.88;102396.22;5097559;28;20043;-27
2022/01/20 10:42:11;;;;;;;0.20;0.20;;;;;;;19.03;39.21;102402.91;5064498;28;20043;-27
2022/01/20 10:44:47;;;;;;;0.20;0.20;;;;;;;19.01;39.37;102416.97;5082649;28;20491;-27
2022/01/20 10:47:25;;;;;;;0.20;0.20;;;;;;;19.01;39.34;102418.91;5098748;28;21420;-27
2022/01/20 10:49:51;;;;;;;0.20;0.20;;;;;;;19.01;39.26;102427.19;5102406;28;20054;-27
2022/01/20 10:52:20;;;;;;;0.20;0.20;;;;;;;19.01;39.40;102416.16;5096541;28;20051;-27
2022/01/20 10:54:48;;;;;;;0.20;0.20;;;;;;;19.02;39.35;102415.91;5089842;28;20048;-28
2022/01/20 10:57:16;;;;;;;0.20;0.20;;;;;;;18.92;33.91;102412.94;5086599;28;20059;-27
2022/01/20 10:59:52;;;;;;;0.20;0.20;;;;;;;19.08;36.94;102408.53;5070995;28;20051;-27
2022/01/20 11:02:20;;;;;;;0.20;0.20;;;;;;;19.12;37.16;102418.03;5103964;28;20047;-30
2022/01/20 11:04:47;;;;;;;0.20;0.20;;;;;;;19.12;37.66;102406.13;5088618;28;20064;-29
2022/01/20 11:07:13;;;;;;;0.20;0.20;;;;;;;19.13;37.62;102410.56;5105302;28;20039;-30
2022/01/20 11:09:42;;;;;;;0.20;0.20;;;;;;;19.14;37.73;102401.22;5090838;28;20058;-31
2022/01/20 11:12:12;;;;;;;0.20;0.20;;;;;;;19.14;37.82;102399.31;5073399;28;20051;-30
2022/01/20 11:14:39;;;;;;;0.20;0.20;;;;;;;19.16;37.93;102405.41;5087588;28;20058;-29
2022/01/20 11:17:05;;;;;;;0.20;0.20;;;;;;;19.16;37.94;102394.34;5089592;27;20143;-30
2022/01/20 11:19:36;;;;;;;0.20;0.20;;;;;;;19.17;38.19;102393.31;5104738;28;20105;-31
2022/01/20 11:22:08;;;;;;;0.20;0.20;;;;;;;19.18;38.02;102388.63;5085412;28;20048;-31
2022/01/20 11:24:35;;;;;;;0.20;0.20;;;;;;;19.18;38.27;102394.97;5087494;28;20417;-30
2022/01/20 11:27:01;;;;;;;0.30;0.30;;;;;;;19.20;38.01;102386.44;5105763;27;20044;-30
2022/01/20 11:29:45;;;;;;;0.20;0.20;;;;;;;19.21;38.16;102399.16;5100191;28;20313;-29
2022/01/20 11:32:27;;;;;;;0.20;0.20;;;;;;;19.21;38.14;102386.19;5084311;28;20059;-31
2022/01/20 11:35:09;;;;;;;0.20;0.20;;;;;;;19.23;38.29;102380.41;5100079;28;20387;-30
2022/01/20 11:37:38;;;;;;;0.20;0.20;;;;;;;19.23;38.21;102374.91;5084907;28;20405;-29
2022/01/20 11:40:17;;;;;;;0.20;0.20;;;;;;;19.23;38.30;102378.50;5089521;28;20534;-30
2022/01/20 11:43:11;;;;;;;0.20;0.20;;;;;;;19.25;38.49;102373.53;5087502;28;20135;-30
2022/01/20 11:45:40;;;;;;;0.20;0.20;;;;;;;19.25;38.16;102370.78;5084885;28;20458;-29
2022/01/20 11:51:04;;;;;;;0.20;0.20;;;;;;;19.27;38.27;102389.91;5139220;27;20212;-35
2022/01/20 11:53:30;;;;;;;0.20;0.20;;;;;;;19.27;38.48;102374.16;5141956;27;20064;-33
2022/01/20 11:55:56;;;;;;;0.20;0.20;;;;;;;19.29;38.41;102383.03;5145382;27;20058;-34
2022/01/20 11:58:24;;;;;;;0.20;0.20;;;;;;;19.30;38.34;102370.06;5126058;27;20480;-32
2022/01/20 12:01:05;;;;;;;0.20;0.20;;;;;;;19.29;38.11;102374.72;5127961;27;20386;-31
2022/01/20 12:03:32;;;;;;;0.20;0.20;;;;;;;19.30;38.18;102365.38;5123345;27;20123;-31
2022/01/20 12:06:02;;;;;;;0.20;0.20;;;;;;;19.09;35.88;102368.00;5145980;27;20122;-31
2022/01/20 12:08:28;;;;;;;0.20;0.20;;;;;;;19.21;36.63;102360.47;5129394;27;20038;-31
2022/01/20 12:10:59;;;;;;;0.20;0.20;;;;;;;19.27;37.06;102365.88;5143680;27;20074;-34
2022/01/20 12:13:25;;;;;;;0.20;0.20;;;;;;;19.29;36.72;102362.84;5127044;27;20143;-30
2022/01/20 12:15:53;;;;;;;0.20;0.20;;;;;;;19.34;36.76;102356.59;5126074;27;20051;-31
2022/01/20 12:18:19;;;;;;;0.20;0.20;;;;;;;19.36;36.96;102359.94;5144881;27;20042;-33
2022/01/20 12:20:44;;;;;;;0.20;0.20;;;;;;;19.35;37.27;102350.84;5138495;27;20258;-35
2022/01/20 12:23:11;;;;;;;0.20;0.20;;;;;;;19.35;37.17;102328.72;5133158;27;20446;-32
2022/01/20 12:25:37;;;;;;;0.20;0.20;;;;;;;19.38;37.30;102332.91;5136069;27;21470;-31
2022/01/20 12:28:10;;;;;;;0.20;0.20;;;;;;;19.39;37.33;102331.84;5131963;27;20539;-32
2022/01/20 12:30:45;;;;;;;0.20;0.20;;;;;;;19.38;37.24;102333.75;5132017;27;20062;-32
2022/01/20 12:33:17;;;;;;;0.20;0.20;;;;;;;19.40;37.36;102345.41;5133521;27;20052;-33
2022/01/20 12:35:50;;;;;;;0.20;0.20;;;;;;;19.41;37.48;102352.59;5131701;27;20046;-34
2022/01/20 12:38:22;;;;;;;0.20;0.20;;;;;;;19.42;37.50;102356.19;5113511;27;20055;-32
2022/01/20 12:41:03;;;;;;;0.20;0.20;;;;;;;19.35;36.58;102350.00;5093815;27;20051;-32